createdAt,value
2019-03-03T00:00:36.068Z,76.60
2019-03-03T00:03:06.514Z,76.58
2019-03-03T00:05:36.973Z,76.80
2019-03-03T00:08:07.402Z,76.94
2019-03-03T00:10:37.799Z,76.70
2019-03-03T00:13:09.305Z,76.43
2019-03-03T00:15:39.641Z,76.46
2019-03-03T00:18:09.986Z,76.41
2019-03-03T00:20:40.336Z,76.72
2019-03-03T00:23:10.679Z,76.06
2019-03-03T00:25:41.022Z,76.14
2019-03-03T00:28:11.365Z,76.34
2019-03-03T00:30:41.743Z,76.52
2019-03-03T00:33:12.113Z,76.90
2019-03-03T00:35:42.455Z,76.76
2019-03-03T00:38:14.448Z,76.76
2019-03-03T00:40:52.580Z,76.87
2019-03-03T00:43:33.526Z,76.76
2019-03-03T00:46:21.949Z,76.65
2019-03-03T00:48:53.943Z,76.76
2019-03-03T00:51:34.852Z,76.69
2019-03-03T00:54:16.209Z,76.56
2019-03-03T00:56:48.204Z,76.77
2019-03-03T00:59:36.519Z,76.78
2019-03-03T01:02:08.806Z,76.77
2019-03-03T01:04:49.630Z,76.61
2019-03-03T01:07:21.573Z,76.70
2019-03-03T01:09:53.555Z,76.81
2019-03-03T01:12:42.195Z,76.73
2019-03-03T01:15:17.255Z,77.05
2019-03-03T01:17:49.220Z,76.70
2019-03-03T01:20:21.217Z,77.01
2019-03-03T01:22:58.948Z,76.76
2019-03-03T01:25:29.292Z,77.09
2019-03-03T01:27:59.831Z,77.66
2019-03-03T01:30:30.172Z,78.08
2019-03-03T01:33:00.533Z,77.80
2019-03-03T01:35:30.848Z,78.13
2019-03-03T01:38:01.107Z,78.29
2019-03-03T01:40:31.411Z,77.89
2019-03-03T01:43:01.741Z,78.31
2019-03-03T01:45:32.386Z,79.11
2019-03-03T01:48:02.743Z,79.16
2019-03-03T01:50:33.093Z,79.04
2019-03-03T01:53:03.374Z,79.25
2019-03-03T01:55:33.668Z,79.58
2019-03-03T01:58:03.994Z,80.01
2019-03-03T02:00:35.125Z,79.70
2019-03-03T02:03:05.395Z,80.24
2019-03-03T02:05:35.670Z,80.07
2019-03-03T02:08:05.928Z,80.27
2019-03-03T02:10:36.200Z,80.73
2019-03-03T02:13:07.221Z,80.59
2019-03-03T02:15:37.557Z,81.20
2019-03-03T02:18:07.826Z,81.42
2019-03-03T02:20:38.163Z,81.58
2019-03-03T02:23:08.466Z,81.78
2019-03-03T02:25:38.818Z,81.93
2019-03-03T02:28:09.084Z,81.97
2019-03-03T02:30:39.374Z,82.00
2019-03-03T02:33:09.826Z,82.11
2019-03-03T02:35:41.194Z,81.98
2019-03-03T02:38:11.458Z,81.95
2019-03-03T02:40:41.738Z,81.73
2019-03-03T02:43:12.020Z,81.86
2019-03-03T02:45:42.313Z,82.11
2019-03-03T02:48:12.684Z,81.92
2019-03-03T02:50:43.030Z,82.03
2019-03-03T02:53:13.365Z,82.13
2019-03-03T02:55:43.724Z,81.79
2019-03-03T02:58:14.052Z,81.32
2019-03-03T03:00:45.961Z,81.27
2019-03-03T03:03:19.383Z,81.23
2019-03-03T03:05:52.932Z,81.19
2019-03-03T03:08:30.714Z,81.38
2019-03-03T03:11:05.344Z,81.36
2019-03-03T03:13:40.799Z,80.90
2019-03-03T03:16:15.410Z,80.91
2019-03-03T03:18:48.463Z,80.97
2019-03-03T03:21:20.371Z,80.98
2019-03-03T03:23:52.296Z,80.59
2019-03-03T03:26:24.241Z,80.76
2019-03-03T03:29:05.344Z,80.40
2019-03-03T03:31:37.275Z,80.79
2019-03-03T03:34:09.209Z,81.26
2019-03-03T03:36:59.551Z,81.49
2019-03-03T03:39:47.779Z,81.22
2019-03-03T03:42:19.791Z,81.42
2019-03-03T03:45:00.639Z,81.34
2019-03-03T03:47:38.795Z,81.39
2019-03-03T03:50:13.756Z,81.45
2019-03-03T03:52:55.006Z,81.26
2019-03-03T03:55:26.996Z,81.06
2019-03-03T03:58:05.104Z,81.53
2019-03-03T04:00:39.974Z,81.09
2019-03-03T04:03:28.238Z,81.36
2019-03-03T04:06:00.224Z,81.38
2019-03-03T04:08:35.352Z,81.24
2019-03-03T04:11:19.623Z,81.33
2019-03-03T04:13:55.242Z,81.33
2019-03-03T04:16:30.084Z,81.13
2019-03-03T04:19:02.015Z,81.20
2019-03-03T04:21:39.654Z,80.99
2019-03-03T04:24:27.927Z,80.84
2019-03-03T04:27:16.011Z,80.80
2019-03-03T04:29:53.649Z,80.67
2019-03-03T04:32:40.726Z,80.10
2019-03-03T04:35:16.061Z,80.41
2019-03-03T04:37:57.352Z,80.70
2019-03-03T04:40:35.017Z,81.07
2019-03-03T04:43:09.585Z,81.15
2019-03-03T04:45:41.583Z,80.91
2019-03-03T04:48:28.849Z,80.99
2019-03-03T04:51:17.205Z,80.73
2019-03-03T04:54:05.625Z,81.10
2019-03-03T04:56:46.301Z,80.89
2019-03-03T04:59:23.938Z,80.74
2019-03-03T05:02:01.811Z,80.81
2019-03-03T05:04:36.660Z,80.46
2019-03-03T05:07:08.664Z,80.13
2019-03-03T05:09:49.070Z,80.05
2019-03-03T05:12:21.298Z,80.21
2019-03-03T05:14:53.285Z,80.07
2019-03-03T05:17:41.673Z,79.97
2019-03-03T05:20:16.633Z,79.92
2019-03-03T05:22:46.911Z,79.81
2019-03-03T05:25:17.190Z,79.69
2019-03-03T05:27:47.481Z,79.45
2019-03-03T05:30:17.749Z,79.48
2019-03-03T05:32:48.065Z,79.65
2019-03-03T05:35:18.702Z,79.46
2019-03-03T05:37:49.050Z,79.38
2019-03-03T05:40:19.410Z,79.43
2019-03-03T05:42:49.789Z,79.09
2019-03-03T05:45:20.050Z,78.80
2019-03-03T05:47:50.395Z,78.90
2019-03-03T05:50:21.550Z,78.63
2019-03-03T05:52:52.554Z,78.99
2019-03-03T05:55:23.503Z,78.81
2019-03-03T05:57:53.885Z,78.57
2019-03-03T06:00:24.159Z,78.97
2019-03-03T06:02:55.563Z,79.44
2019-03-03T06:05:25.964Z,79.59
2019-03-03T06:07:56.239Z,80.29
2019-03-03T06:10:26.499Z,80.45
2019-03-03T06:12:56.783Z,80.86
2019-03-03T06:15:27.925Z,81.17
2019-03-03T06:17:58.287Z,81.19
2019-03-03T06:20:28.634Z,81.21
2019-03-03T06:22:58.910Z,81.41
2019-03-03T06:25:29.169Z,81.47
2019-03-03T06:27:59.559Z,81.56
2019-03-03T06:30:29.908Z,81.96
2019-03-03T06:33:00.191Z,82.46
2019-03-03T06:35:30.583Z,82.96
2019-03-03T06:38:00.925Z,83.59
2019-03-03T06:40:31.219Z,83.89
2019-03-03T06:43:01.481Z,83.81
2019-03-03T06:45:31.814Z,84.25
2019-03-03T06:48:02.080Z,84.49
2019-03-03T06:50:32.453Z,84.47
2019-03-03T06:53:02.745Z,84.58
2019-03-03T06:55:33.014Z,84.69
2019-03-03T06:58:03.282Z,84.60
2019-03-03T07:00:34.563Z,84.75
2019-03-03T07:03:04.932Z,84.77
2019-03-03T07:05:35.267Z,84.61
2019-03-03T07:08:05.646Z,84.89
2019-03-03T07:10:35.998Z,84.95
2019-03-03T07:13:06.309Z,84.85
2019-03-03T07:15:37.416Z,85.05
2019-03-03T07:18:07.767Z,85.10
2019-03-03T07:20:38.154Z,84.98
2019-03-03T07:23:08.495Z,84.90
2019-03-03T07:25:38.774Z,84.58
2019-03-03T07:28:09.281Z,84.40
2019-03-03T07:30:39.668Z,84.56
2019-03-03T07:33:11.601Z,84.54
2019-03-03T07:35:42.046Z,84.39
2019-03-03T07:38:12.420Z,84.36
2019-03-03T07:40:42.709Z,84.19
2019-03-03T07:43:13.102Z,84.41
2019-03-03T07:45:43.497Z,84.37
2019-03-03T07:48:13.840Z,84.46
2019-03-03T07:50:44.209Z,84.43
2019-03-03T07:53:14.491Z,84.28
2019-03-03T07:55:44.767Z,84.33
2019-03-03T07:58:15.111Z,84.28
2019-03-03T08:00:46.471Z,84.17
2019-03-03T08:03:16.747Z,84.14
2019-03-03T08:05:47.109Z,84.18
2019-03-03T08:08:17.394Z,84.14
2019-03-03T08:10:47.763Z,83.91
2019-03-03T08:13:18.161Z,83.77
2019-03-03T08:15:51.018Z,83.73
2019-03-03T08:18:21.518Z,83.54
2019-03-03T08:20:51.866Z,83.30
2019-03-03T08:23:22.150Z,82.95
2019-03-03T08:25:52.506Z,82.77
2019-03-03T08:28:22.765Z,82.35
2019-03-03T08:30:53.028Z,81.98
2019-03-03T08:33:23.383Z,81.39
2019-03-03T08:35:53.699Z,81.46
2019-03-03T08:38:24.025Z,81.59
2019-03-03T08:40:54.378Z,81.37
2019-03-03T08:51:09.249Z,80.18
2019-03-03T09:01:24.091Z,78.34
2019-03-03T09:08:12.083Z,76.23
2019-03-03T09:10:50.208Z,76.36
2019-03-03T09:13:22.159Z,76.61
2019-03-03T09:16:12.868Z,76.24
2019-03-03T09:18:50.542Z,76.08
2019-03-03T09:21:38.987Z,76.09
2019-03-03T09:24:27.092Z,75.80
2019-03-03T09:27:17.317Z,75.91
2019-03-03T09:29:54.980Z,75.18
2019-03-03T09:32:36.643Z,75.35
2019-03-03T09:35:20.541Z,74.46
2019-03-03T09:38:04.831Z,74.81
2019-03-03T09:40:45.794Z,74.50
2019-03-03T09:43:22.960Z,73.47
2019-03-03T09:45:56.872Z,72.83
2019-03-03T09:48:31.709Z,71.51
2019-03-03T09:51:10.836Z,71.28
2019-03-03T09:53:54.638Z,71.02
2019-03-03T09:56:40.775Z,69.24
2019-03-03T10:03:05.757Z,67.60
2019-03-03T10:05:48.250Z,67.15
2019-03-03T10:08:26.853Z,66.29
2019-03-03T10:15:29.983Z,66.46
2019-03-03T10:18:18.359Z,66.70
2019-03-03T10:20:59.875Z,66.73
2019-03-03T10:38:49.595Z,66.73
2019-03-03T10:41:25.954Z,66.91
2019-03-03T10:44:00.681Z,67.02
2019-03-03T10:46:47.905Z,66.87
2019-03-03T10:49:42.468Z,66.64
2019-03-03T10:52:27.474Z,66.13
2019-03-03T10:55:08.176Z,65.45
2019-03-03T10:57:44.488Z,66.01
2019-03-03T11:00:30.023Z,65.81
2019-03-03T11:11:39.664Z,64.76
2019-03-03T11:14:20.479Z,63.95
2019-03-03T11:16:52.633Z,62.88
2019-03-03T11:19:38.123Z,62.81
2019-03-03T11:22:12.955Z,62.46
2019-03-03T11:24:44.998Z,61.97
2019-03-03T11:27:19.663Z,61.79
2019-03-03T11:29:51.641Z,61.10
2019-03-03T11:32:29.760Z,60.56
2019-03-03T11:35:01.977Z,60.15
2019-03-03T11:37:37.527Z,59.99
2019-03-03T11:40:13.128Z,59.62
2019-03-03T11:43:01.671Z,59.24
2019-03-03T11:45:36.625Z,58.95
2019-03-03T11:48:14.523Z,59.46
2019-03-03T11:50:52.199Z,60.03
2019-03-03T11:53:31.711Z,61.46
2019-03-03T11:56:12.895Z,60.95
2019-03-03T11:59:03.076Z,60.13
2019-03-03T12:01:47.974Z,59.53
2019-03-03T12:04:28.936Z,59.73
2019-03-03T12:07:00.914Z,60.00
2019-03-03T12:09:52.258Z,59.59
2019-03-03T12:12:40.328Z,59.61
2019-03-03T12:15:21.103Z,59.95
2019-03-03T12:18:09.213Z,59.53
2019-03-03T12:20:41.928Z,58.94
2019-03-03T12:23:19.635Z,58.52
2019-03-03T12:25:54.018Z,58.75
2019-03-03T12:28:42.132Z,58.14
2019-03-03T12:31:15.466Z,58.62
2019-03-03T12:33:49.023Z,58.57
2019-03-03T12:36:37.273Z,58.80
2019-03-03T12:39:09.376Z,58.74
2019-03-03T12:41:51.522Z,59.05
2019-03-03T12:44:26.287Z,59.25
2019-03-03T12:47:06.915Z,58.76
2019-03-03T12:49:55.338Z,58.87
2019-03-03T12:52:39.475Z,58.96
2019-03-03T12:55:20.529Z,59.56
2019-03-03T12:57:52.400Z,59.24
2019-03-03T13:00:36.342Z,59.43
2019-03-03T13:03:24.931Z,60.14
2019-03-03T13:06:13.345Z,60.28
2019-03-03T13:08:59.402Z,60.86
2019-03-03T13:11:30.910Z,61.92
2019-03-03T13:14:05.888Z,61.92
2019-03-03T13:16:40.847Z,62.71
2019-03-03T13:19:18.495Z,63.04
2019-03-03T13:22:06.683Z,64.06
2019-03-03T13:24:38.788Z,64.46
2019-03-03T13:27:10.790Z,64.27
2019-03-03T13:29:42.886Z,65.71
2019-03-03T13:32:17.839Z,66.79
2019-03-03T13:34:50.990Z,68.07
2019-03-03T13:37:37.307Z,68.78
2019-03-03T13:40:13.748Z,69.30
2019-03-03T13:42:45.713Z,71.17
2019-03-03T13:45:16.000Z,72.12
2019-03-03T13:47:46.255Z,73.35
2019-03-03T13:50:16.613Z,74.08
2019-03-03T13:52:46.964Z,74.71
2019-03-03T13:55:17.504Z,75.09
2019-03-03T13:57:47.770Z,75.77
2019-03-03T14:36:22.414Z,79.38
2019-03-03T15:02:53.594Z,80.67
2019-03-03T15:09:24.618Z,80.87
2019-03-03T15:21:59.151Z,82.04
2019-03-03T15:24:32.581Z,82.29
2019-03-03T15:27:03.221Z,82.22
2019-03-03T15:29:33.511Z,82.56
2019-03-03T15:32:03.828Z,82.53
2019-03-03T15:45:57.430Z,83.13
2019-03-03T16:16:44.313Z,83.64
2019-03-03T16:57:02.266Z,83.12
2019-03-03T16:59:35.118Z,83.13
2019-03-03T17:09:16.955Z,82.62
2019-03-03T17:11:47.709Z,82.37
2019-03-03T17:14:18.050Z,82.47
2019-03-03T17:24:32.491Z,82.19
2019-03-03T17:27:04.640Z,82.07
2019-03-03T17:29:34.866Z,82.20
2019-03-03T17:32:05.325Z,82.03
2019-03-03T17:42:37.236Z,82.40
2019-03-03T17:45:34.292Z,82.50
2019-03-03T17:48:06.174Z,82.68
2019-03-03T17:54:36.578Z,83.31
2019-03-03T17:57:07.064Z,83.75
2019-03-03T17:59:42.102Z,83.82
2019-03-03T18:02:19.538Z,83.92
2019-03-03T18:05:41.923Z,83.99
2019-03-03T18:08:12.355Z,83.96
2019-03-03T18:11:07.340Z,84.08
2019-03-03T18:13:37.878Z,84.21
2019-03-03T18:16:09.100Z,84.40
2019-03-03T18:18:39.461Z,84.54
2019-03-03T18:21:10.308Z,84.53
2019-03-03T18:28:03.557Z,84.83
2019-03-03T18:30:35.001Z,85.00
2019-03-03T18:33:05.340Z,84.99
2019-03-03T18:35:57.820Z,85.01
2019-03-03T18:43:01.559Z,85.11
2019-03-03T18:49:51.328Z,85.27
2019-03-03T18:53:11.008Z,85.43
2019-03-03T18:56:11.377Z,85.43
2019-03-03T19:14:30.168Z,85.62
2019-03-03T19:17:00.594Z,85.54
2019-03-03T19:19:32.913Z,85.53
2019-03-03T19:22:04.100Z,85.56
2019-03-03T19:24:37.365Z,85.51
2019-03-03T19:27:07.817Z,85.32
2019-03-03T19:29:40.170Z,85.36
2019-03-03T19:32:11.494Z,85.11
2019-03-03T19:34:47.629Z,85.03
2019-03-03T19:37:23.378Z,84.96
2019-03-03T19:39:54.138Z,85.04
2019-03-03T19:42:24.626Z,84.80
2019-03-03T19:44:55.083Z,84.58
2019-03-03T19:47:25.399Z,84.57
2019-03-03T19:49:55.593Z,84.69
2019-03-03T19:52:28.755Z,84.54
2019-03-03T19:54:58.229Z,84.46
2019-03-03T19:57:31.094Z,84.44
2019-03-03T20:00:04.173Z,84.11
2019-03-03T20:02:37.026Z,84.00
2019-03-03T20:05:07.295Z,83.97
2019-03-03T20:07:38.519Z,83.95
2019-03-03T20:10:15.674Z,83.66
2019-03-03T20:12:48.349Z,83.50
2019-03-03T20:15:23.747Z,83.49
2019-03-03T20:24:50.919Z,83.63
2019-03-03T20:27:24.104Z,83.28
2019-03-03T20:32:47.521Z,83.26
2019-03-03T20:53:47.062Z,83.32
2019-03-03T20:56:18.857Z,83.10
2019-03-03T20:58:53.993Z,82.65
2019-03-03T21:01:24.514Z,82.83
2019-03-03T21:03:54.800Z,82.88
2019-03-03T21:06:25.075Z,82.84
2019-03-03T21:08:55.384Z,82.93
2019-03-03T21:11:26.206Z,82.79
2019-03-03T21:13:56.907Z,82.67
2019-03-03T21:16:27.351Z,82.88
2019-03-03T21:18:57.810Z,82.48
2019-03-03T21:21:28.594Z,82.68
2019-03-03T21:28:27.766Z,82.43
2019-03-03T21:30:59.013Z,82.01
2019-03-03T21:33:29.278Z,82.11
2019-03-03T21:36:30.932Z,82.18
2019-03-03T21:39:38.601Z,81.96
2019-03-03T21:42:08.926Z,82.26
2019-03-03T21:45:15.090Z,82.11
2019-03-03T21:47:47.510Z,82.14
2019-03-03T21:50:19.787Z,82.10
2019-03-03T21:52:50.614Z,82.09
2019-03-03T21:55:21.015Z,81.87
2019-03-03T21:57:51.354Z,81.21
2019-03-03T22:00:27.427Z,81.53
2019-03-03T22:02:57.835Z,81.48
2019-03-03T22:05:31.956Z,81.86
2019-03-03T22:08:02.226Z,81.74
2019-03-03T22:10:33.630Z,81.90
2019-03-03T22:13:08.581Z,82.04
2019-03-03T22:15:39.062Z,81.94
2019-03-03T22:18:10.722Z,81.87
2019-03-03T22:20:42.879Z,81.70
2019-03-03T22:23:13.645Z,81.45
2019-03-03T22:25:43.997Z,81.04
2019-03-03T22:28:15.587Z,81.42
2019-03-03T22:30:46.049Z,81.30
2019-03-03T22:33:16.402Z,81.51
2019-03-03T22:36:59.915Z,81.33
2019-03-03T22:39:30.251Z,81.44
2019-03-03T22:42:00.547Z,81.48
2019-03-03T22:44:30.778Z,81.68
2019-03-03T22:47:01.179Z,81.33
2019-03-03T22:49:31.582Z,81.36
2019-03-03T22:52:02.646Z,81.25
2019-03-03T22:54:48.090Z,81.17
2019-03-03T22:57:18.352Z,80.85
2019-03-03T23:00:21.759Z,80.75
2019-03-03T23:02:53.658Z,81.13
2019-03-03T23:05:36.064Z,80.65
2019-03-03T23:08:09.676Z,80.59
2019-03-03T23:10:47.040Z,80.43
2019-03-03T23:13:32.830Z,80.41
2019-03-03T23:16:09.030Z,79.95
2019-03-03T23:18:54.450Z,79.94
2019-03-03T23:21:37.050Z,80.24
2019-03-03T23:24:36.260Z,79.70
2019-03-03T23:27:07.193Z,79.60
2019-03-03T23:29:39.273Z,79.72
2019-03-03T23:32:12.295Z,79.50
2019-03-03T23:35:48.096Z,79.60
2019-03-03T23:38:31.757Z,79.45
2019-03-03T23:41:02.041Z,78.99
2019-03-03T23:43:32.390Z,79.01
2019-03-03T23:46:05.545Z,78.71
2019-03-03T23:48:35.878Z,78.94
2019-03-03T23:51:06.237Z,78.55
2019-03-03T23:53:36.820Z,78.23
2019-03-03T23:56:07.147Z,78.33
2019-03-03T23:58:37.473Z,78.26
